This is the latest recevied weather packets stored in our database for station/object NE1CU. If no packets are shown the sender has not sent any weather packets the latest 10 day(s).
| Time | Temp. | Humidity | Pressure | Rain* | Wind** | Luminosity | Snow |
|---|---|---|---|---|---|---|---|
| 1777303565 | 18.33° C | 38% | 1024 hPa | 0 mm | - | 876 W/m² | - |
| 1777303263 | 18.33° C | 40% | 1023.8 hPa | 0 mm | - | 870 W/m² | - |
| 1777302960 | 18.89° C | 36% | 1024.1 hPa | 0 mm | - | 860 W/m² | - |
| 1777302656 | 18.33° C | 39% | 1024 hPa | 0 mm | - | 848 W/m² | - |
| 1777302355 | 17.78° C | 40% | 1024 hPa | 0 mm | - | 841 W/m² | - |
| 1777302053 | 17.78° C | 40% | 1024 hPa | 0 mm | - | 831 W/m² | - |
| 1777301751 | 18.33° C | 38% | 1024 hPa | 0 mm | - | 820 W/m² | - |
| 1777301447 | 17.78° C | 40% | 1024.1 hPa | 0 mm | - | 809 W/m² | - |
| 1777301144 | 17.78° C | 40% | 1024.1 hPa | 0 mm | - | 796 W/m² | - |
| 1777300841 | 17.22° C | 40% | 1024.1 hPa | 0 mm | - | 783 W/m² | - |
| 1777300540 | 16.67° C | 41% | 1024.2 hPa | 0 mm | - | 770 W/m² | - |
| 1777300237 | 16.67° C | 41% | 1024.1 hPa | 0 mm | - | 756 W/m² | - |
| 1777299932 | 16.67° C | 40% | 1024.2 hPa | 0 mm | - | 744 W/m² | - |
| 1777299630 | 16.67° C | 40% | 1024.2 hPa | 0 mm | - | 729 W/m² | - |
| 1777299328 | 16.67° C | 41% | 1024.1 hPa | 0 mm | - | 716 W/m² | - |
| 1777299025 | 16.67° C | 42% | 1024.1 hPa | 0 mm | - | 701 W/m² | - |
| 1777298722 | 16.11° C | 42% | 1024.1 hPa | 0 mm | - | 685 W/m² | - |
| 1777298419 | 16.67° C | 40% | 1023.9 hPa | 0 mm | - | 669 W/m² | - |
| 1777298115 | 16.11° C | 41% | 1023.9 hPa | 0 mm | - | 658 W/m² | - |
| 1777297815 | 16.11° C | 44% | 1023.9 hPa | 0 mm | - | 640 W/m² | - |
| 1777297514 | 16.11° C | 42% | 1023.9 hPa | 0 mm | - | 625 W/m² | - |
| 1777297209 | 16.11° C | 46% | 1023.9 hPa | 0 mm | - | 609 W/m² | - |
| 1777296908 | 15.56° C | 48% | 1024 hPa | 0 mm | - | 591 W/m² | - |
| 1777296604 | 15.56° C | 47% | 1023.9 hPa | 0 mm | - | 573 W/m² | - |
| 1777296273 | 15° C | 51% | 1023.8 hPa | 0 mm | - | 552 W/m² | - |
* Rain latest hour (hover to see other rain measurements)
** Current wind speed in m/s (hover to see current wind gust speed)